Anacortes, Washington
Current Conditions -  °F | °C
As of 8:56 AM on Thursday 30 Oct 2014 (Local Time) from KNUW Reporting Station
Overcast Overcast  
Wind Chill: 55°   Ceiling: 12000
Heat Index: 55°   Visibility: 10mi
Dew Point: 48°   Wind: 15mph
Humidity: 77%   Direction: 130°SE
Pressure: 29.83"   Gusts: NA
Location:  48.51°N, 122.61°W
Report Text: KNUW 301556Z 13013KT 10SM FEW012 FEW060 BKN120 OVC160 13/09 A2983 RMK AO2 RAE33 SLP106 P0000 T01280089 $
Loading
Personal Weather Stations






























Interactive Weather Map New forecast layout! Learn more

10-Day Weather Forecast

Advertisements
Track Severe Weather on mobile